createdAt,value
2023-05-01T00:00:57.714Z,100.00
2023-05-01T00:03:25.152Z,100.00
2023-05-01T00:05:52.428Z,100.00
2023-05-01T00:08:19.607Z,100.00
2023-05-01T00:10:46.969Z,100.00
2023-05-01T00:13:14.140Z,100.00
2023-05-01T00:15:42.172Z,100.00
2023-05-01T00:18:09.492Z,100.00
2023-05-01T00:20:39.133Z,100.00
2023-05-01T00:23:07.022Z,100.00
2023-05-01T00:25:33.954Z,100.00
2023-05-01T00:28:01.211Z,100.00
2023-05-01T00:30:28.220Z,100.00
2023-05-01T00:32:55.520Z,100.00
2023-05-01T00:35:22.738Z,100.00
2023-05-01T00:37:50.025Z,100.00
2023-05-01T00:40:16.915Z,100.00
2023-05-01T00:42:44.207Z,100.00
2023-05-01T00:45:11.421Z,100.00
2023-05-01T00:47:38.822Z,100.00
2023-05-01T00:50:06.248Z,100.00
2023-05-01T00:52:33.497Z,100.00
2023-05-01T00:55:00.773Z,100.00
2023-05-01T00:57:27.934Z,100.00
2023-05-01T00:59:55.110Z,100.00
2023-05-01T01:02:24.992Z,100.00
2023-05-01T01:04:51.950Z,100.00
2023-05-01T01:07:22.675Z,100.00
2023-05-01T01:10:08.463Z,100.00
2023-05-01T01:12:52.401Z,100.00
2023-05-01T01:15:31.991Z,100.00
2023-05-01T01:18:02.494Z,100.00
2023-05-01T01:20:32.428Z,100.00
2023-05-01T01:23:25.936Z,100.00
2023-05-01T01:26:08.135Z,100.00
2023-05-01T01:28:35.396Z,100.00
2023-05-01T01:31:08.826Z,100.00
2023-05-01T01:33:39.087Z,100.00
2023-05-01T01:36:12.009Z,100.00
2023-05-01T01:39:02.400Z,100.00
2023-05-01T01:41:31.849Z,100.00
2023-05-01T01:44:03.204Z,100.00
2023-05-01T01:46:33.137Z,100.00
2023-05-01T01:49:00.672Z,100.00
2023-05-01T01:51:29.447Z,100.00
2023-05-01T01:54:00.475Z,100.00
2023-05-01T01:56:29.584Z,100.00
2023-05-01T01:58:57.240Z,100.00
2023-05-01T02:01:25.047Z,100.00
2023-05-01T02:03:55.475Z,100.00
2023-05-01T02:06:23.515Z,100.00
2023-05-01T02:08:51.630Z,100.00
2023-05-01T02:11:21.229Z,100.00
2023-05-01T02:13:52.594Z,100.00
2023-05-01T02:16:21.049Z,100.00
2023-05-01T02:18:51.794Z,100.00
2023-05-01T02:21:20.391Z,100.00
2023-05-01T02:23:48.269Z,100.00
2023-05-01T02:26:18.374Z,100.00
2023-05-01T02:28:45.754Z,100.00
2023-05-01T02:31:13.623Z,100.00
2023-05-01T02:33:41.305Z,100.00
2023-05-01T02:36:08.674Z,100.00
2023-05-01T02:38:35.841Z,100.00
2023-05-01T02:41:03.811Z,100.00
2023-05-01T02:43:32.881Z,100.00
2023-05-01T02:46:04.627Z,100.00
2023-05-01T02:48:34.245Z,100.00
2023-05-01T02:51:01.844Z,100.00
2023-05-01T02:53:32.787Z,100.00
2023-05-01T02:56:08.053Z,100.00
2023-05-01T02:58:35.659Z,100.00
2023-05-01T03:01:02.670Z,100.00
2023-05-01T03:03:29.933Z,100.00
2023-05-01T03:05:57.613Z,100.00
2023-05-01T03:08:24.990Z,100.00
2023-05-01T03:10:51.977Z,100.00
2023-05-01T03:13:19.145Z,100.00
2023-05-01T03:15:46.564Z,100.00
2023-05-01T03:18:14.348Z,100.00
2023-05-01T03:20:41.580Z,100.00
2023-05-01T03:23:09.235Z,100.00
2023-05-01T03:25:37.167Z,100.00
2023-05-01T03:28:04.434Z,100.00
2023-05-01T03:30:33.504Z,100.00
2023-05-01T03:33:01.078Z,100.00
2023-05-01T03:35:30.994Z,100.00
2023-05-01T03:37:58.947Z,100.00
2023-05-01T03:41:01.210Z,100.00
2023-05-01T03:43:44.533Z,100.00
2023-05-01T03:46:28.598Z,100.00
2023-05-01T03:48:56.885Z,100.00
2023-05-01T03:51:24.762Z,100.00
2023-05-01T03:53:56.823Z,100.00
2023-05-01T03:56:25.822Z,100.00
2023-05-01T03:58:53.363Z,100.00
2023-05-01T04:01:20.208Z,100.00
2023-05-01T04:03:48.723Z,100.00
2023-05-01T04:06:17.439Z,100.00
2023-05-01T04:08:45.050Z,100.00
2023-05-01T04:11:12.059Z,100.00
2023-05-01T04:13:39.533Z,100.00
2023-05-01T04:16:07.390Z,100.00
2023-05-01T04:18:34.650Z,100.00
2023-05-01T04:21:01.823Z,100.00
2023-05-01T04:23:29.120Z,100.00
2023-05-01T04:25:58.845Z,100.00
2023-05-01T04:28:27.929Z,100.00
2023-05-01T04:30:55.806Z,100.00
2023-05-01T04:33:23.638Z,100.00
2023-05-01T04:35:50.617Z,100.00
2023-05-01T04:38:17.998Z,100.00
2023-05-01T04:40:47.855Z,100.00
2023-05-01T04:43:15.057Z,100.00
2023-05-01T04:45:42.915Z,100.00
2023-05-01T04:48:10.264Z,100.00
2023-05-01T04:50:37.779Z,100.00
2023-05-01T04:53:05.026Z,100.00
2023-05-01T04:55:34.376Z,100.00
2023-05-01T04:58:06.035Z,100.00
2023-05-01T05:00:35.226Z,100.00
2023-05-01T05:03:03.513Z,100.00
2023-05-01T05:05:31.569Z,100.00
2023-05-01T05:07:58.702Z,100.00
2023-05-01T05:10:31.167Z,100.00
2023-05-01T05:13:17.578Z,100.00
2023-05-01T05:15:46.681Z,100.00
2023-05-01T05:18:14.721Z,100.00
2023-05-01T05:20:41.634Z,100.00
2023-05-01T05:23:09.381Z,100.00
2023-05-01T05:25:36.396Z,100.00
2023-05-01T05:28:03.959Z,100.00
2023-05-01T05:30:31.198Z,100.00
2023-05-01T05:32:58.924Z,100.00
2023-05-01T05:35:26.177Z,100.00
2023-05-01T05:37:54.752Z,100.00
2023-05-01T05:40:22.387Z,100.00
2023-05-01T05:42:56.670Z,100.00
2023-05-01T05:45:25.732Z,92.95
2023-05-01T05:47:53.256Z,85.83
2023-05-01T05:50:20.320Z,74.68
2023-05-01T05:52:51.437Z,70.29
2023-05-01T05:55:18.866Z,69.31
2023-05-01T05:57:59.582Z,77.14
2023-05-01T06:00:26.486Z,79.17
2023-05-01T06:02:57.210Z,77.49
2023-05-01T06:05:27.809Z,72.66
2023-05-01T06:07:57.778Z,74.35
2023-05-01T06:10:24.864Z,70.80
2023-05-01T06:12:53.772Z,78.03
2023-05-01T06:15:27.571Z,80.40
2023-05-01T06:17:55.306Z,76.51
2023-05-01T06:20:24.543Z,70.10
2023-05-01T06:22:51.912Z,71.63
2023-05-01T06:25:26.017Z,68.18
2023-05-01T06:27:53.284Z,64.14
2023-05-01T06:30:22.562Z,63.89
2023-05-01T06:32:50.582Z,63.02
2023-05-01T06:35:17.771Z,57.68
2023-05-01T06:37:47.433Z,53.07
2023-05-01T06:40:14.630Z,47.03
2023-05-01T06:42:46.347Z,43.68
2023-05-01T06:45:13.459Z,41.25
2023-05-01T06:47:40.758Z,40.24
2023-05-01T06:50:10.382Z,38.85
2023-05-01T06:52:37.702Z,39.45
2023-05-01T06:55:07.117Z,38.48
2023-05-01T06:57:37.699Z,39.79
2023-05-01T07:00:07.352Z,37.57
2023-05-01T07:02:38.234Z,36.18
2023-05-01T07:05:07.492Z,35.77
2023-05-01T07:07:35.083Z,34.78
2023-05-01T07:10:04.671Z,34.33
2023-05-01T07:12:34.724Z,35.92
2023-05-01T07:15:01.686Z,36.44
2023-05-01T07:17:29.754Z,38.23
2023-05-01T07:19:59.397Z,37.47
2023-05-01T07:22:27.050Z,37.06
2023-05-01T07:24:54.017Z,37.48
2023-05-01T07:27:22.226Z,37.68
2023-05-01T07:29:53.073Z,40.76
2023-05-01T07:32:20.688Z,41.33
2023-05-01T07:34:47.818Z,41.30
2023-05-01T07:37:15.095Z,42.02
2023-05-01T07:39:42.130Z,41.98
2023-05-01T07:42:09.365Z,39.14
2023-05-01T07:44:36.270Z,37.67
2023-05-01T07:47:06.737Z,38.55
2023-05-01T07:49:38.992Z,42.06
2023-05-01T07:52:09.681Z,38.97
2023-05-01T07:54:36.843Z,41.35
2023-05-01T07:57:06.190Z,38.46
2023-05-01T07:59:33.204Z,37.43
2023-05-01T08:02:00.492Z,36.88
2023-05-01T08:04:31.275Z,37.13
2023-05-01T08:06:58.494Z,37.82
2023-05-01T08:09:28.348Z,35.26
2023-05-01T08:11:57.856Z,36.15
2023-05-01T08:14:24.738Z,37.65
2023-05-01T08:16:55.544Z,35.60
2023-05-01T08:19:23.252Z,35.30
2023-05-01T08:21:53.233Z,35.04
2023-05-01T08:24:23.261Z,34.87
2023-05-01T08:26:50.683Z,36.53
2023-05-01T08:29:17.511Z,37.88
2023-05-01T08:31:45.278Z,35.42
2023-05-01T08:34:12.170Z,35.25
2023-05-01T08:36:41.610Z,38.48
2023-05-01T08:39:08.498Z,36.62
2023-05-01T08:41:38.266Z,34.32
2023-05-01T08:44:08.753Z,34.79
2023-05-01T08:46:36.205Z,34.56
2023-05-01T08:49:05.466Z,33.51
2023-05-01T08:51:33.427Z,33.16
2023-05-01T08:54:02.025Z,34.36
2023-05-01T08:56:31.367Z,34.75
2023-05-01T08:58:59.559Z,34.34
2023-05-01T09:01:32.755Z,34.38
2023-05-01T09:04:02.532Z,34.27
2023-05-01T09:06:32.578Z,34.10
2023-05-01T09:09:02.732Z,32.00
2023-05-01T09:11:30.230Z,32.73
2023-05-01T09:13:57.434Z,34.09
2023-05-01T09:16:24.803Z,35.46
2023-05-01T09:18:54.871Z,33.77
2023-05-01T09:21:22.699Z,34.87
2023-05-01T09:23:50.785Z,35.43
2023-05-01T09:26:18.340Z,35.46
2023-05-01T09:28:48.618Z,35.32
2023-05-01T09:31:28.597Z,35.19
2023-05-01T09:33:59.408Z,35.55
2023-05-01T09:36:37.564Z,35.80
2023-05-01T09:39:07.040Z,36.78
2023-05-01T09:41:34.378Z,36.61
2023-05-01T09:44:01.897Z,35.74
2023-05-01T09:46:40.834Z,36.55
2023-05-01T09:49:07.875Z,36.01
2023-05-01T09:51:35.246Z,35.71
2023-05-01T09:54:04.051Z,35.63
2023-05-01T09:56:32.264Z,37.86
2023-05-01T09:59:20.833Z,35.71
2023-05-01T10:01:51.482Z,38.91
2023-05-01T10:04:29.512Z,38.81
2023-05-01T10:07:00.503Z,38.57
2023-05-01T10:09:29.783Z,39.56
2023-05-01T10:11:58.021Z,39.42
2023-05-01T10:14:27.158Z,39.49
2023-05-01T10:16:59.676Z,38.87
2023-05-01T10:19:27.030Z,41.10
2023-05-01T10:21:54.170Z,40.70
2023-05-01T10:24:24.202Z,40.56
2023-05-01T10:26:51.314Z,41.67
2023-05-01T10:29:23.942Z,40.58
2023-05-01T10:31:50.990Z,40.26
2023-05-01T10:34:21.213Z,41.75
2023-05-01T10:36:53.596Z,41.29
2023-05-01T10:39:33.902Z,41.10
2023-05-01T10:42:04.771Z,40.56
2023-05-01T10:44:32.525Z,40.30
2023-05-01T10:46:59.476Z,42.61
2023-05-01T10:49:46.623Z,42.47
2023-05-01T10:52:14.198Z,43.62
2023-05-01T10:54:43.799Z,43.57
2023-05-01T10:57:30.572Z,42.91
2023-05-01T11:00:01.871Z,42.45
2023-05-01T11:02:30.613Z,43.51
2023-05-01T11:04:58.223Z,44.96
2023-05-01T11:07:26.206Z,45.09
2023-05-01T11:09:55.555Z,45.67
2023-05-01T11:12:41.627Z,46.78
2023-05-01T11:15:09.760Z,47.49
2023-05-01T11:17:39.638Z,46.33
2023-05-01T11:20:07.715Z,46.97
2023-05-01T11:22:36.090Z,48.59
2023-05-01T11:25:04.700Z,48.47
2023-05-01T11:27:32.040Z,48.01
2023-05-01T11:29:59.750Z,50.31
2023-05-01T11:32:30.350Z,49.26
2023-05-01T11:34:58.334Z,50.93
2023-05-01T11:37:41.993Z,47.08
2023-05-01T11:40:19.943Z,49.46
2023-05-01T11:42:46.793Z,49.19
2023-05-01T11:45:14.202Z,49.88
2023-05-01T11:47:41.453Z,52.50
2023-05-01T11:50:09.241Z,50.03
2023-05-01T11:52:43.358Z,51.16
2023-05-01T11:55:13.115Z,49.97
2023-05-01T11:57:50.404Z,50.63
2023-05-01T12:00:38.389Z,49.85
2023-05-01T12:03:06.643Z,49.53
2023-05-01T12:05:39.659Z,49.30
2023-05-01T12:08:19.615Z,48.55
2023-05-01T12:10:58.766Z,48.42
2023-05-01T12:13:27.063Z,50.19
2023-05-01T12:15:55.006Z,50.50
2023-05-01T12:18:22.164Z,51.86
2023-05-01T12:20:52.112Z,51.89
2023-05-01T12:23:20.293Z,50.26
2023-05-01T12:25:47.506Z,50.32
2023-05-01T12:28:19.893Z,49.81
2023-05-01T12:30:49.078Z,50.91
2023-05-01T12:33:20.223Z,51.35
2023-05-01T12:35:48.345Z,49.95
2023-05-01T12:38:22.115Z,49.44
2023-05-01T12:40:54.517Z,50.91
2023-05-01T12:43:22.485Z,50.75
2023-05-01T12:45:53.626Z,50.43
2023-05-01T12:48:20.910Z,50.97
2023-05-01T12:50:54.575Z,49.88
2023-05-01T12:53:25.480Z,49.50
2023-05-01T12:55:54.020Z,49.89
2023-05-01T12:58:23.850Z,48.50
2023-05-01T13:00:55.496Z,49.41
2023-05-01T13:03:23.916Z,49.50
2023-05-01T13:05:56.538Z,50.95
2023-05-01T13:08:27.790Z,49.66
2023-05-01T13:10:58.263Z,49.50
2023-05-01T13:13:28.186Z,48.59
2023-05-01T13:16:04.073Z,49.38
2023-05-01T13:18:31.543Z,47.69
2023-05-01T13:21:09.364Z,48.06
2023-05-01T13:23:39.533Z,48.34
2023-05-01T13:26:07.717Z,48.58
2023-05-01T13:28:35.650Z,49.05
2023-05-01T13:31:03.717Z,48.88
2023-05-01T13:33:31.448Z,48.20
2023-05-01T13:35:58.914Z,47.89
2023-05-01T13:38:25.877Z,49.63
2023-05-01T13:40:53.473Z,48.55
2023-05-01T13:43:22.400Z,48.10
2023-05-01T13:45:50.010Z,47.40
2023-05-01T13:48:17.765Z,46.89
2023-05-01T13:50:44.992Z,47.45
2023-05-01T13:53:14.533Z,47.20
2023-05-01T13:55:42.577Z,47.03
2023-05-01T13:58:09.537Z,47.22
2023-05-01T14:00:37.919Z,47.30
2023-05-01T14:03:05.167Z,47.01
2023-05-01T14:05:32.637Z,48.04
2023-05-01T14:07:59.771Z,48.56
2023-05-01T14:10:28.097Z,48.81
2023-05-01T14:12:58.683Z,49.39
2023-05-01T14:15:26.921Z,50.10
2023-05-01T14:17:53.832Z,49.47
2023-05-01T14:20:21.254Z,49.56
2023-05-01T14:22:48.895Z,48.56
2023-05-01T14:25:34.938Z,48.83
2023-05-01T14:28:05.552Z,48.59
2023-05-01T14:30:34.319Z,49.49
2023-05-01T14:33:02.467Z,49.31
2023-05-01T14:35:29.881Z,48.96
2023-05-01T14:38:00.315Z,48.89
2023-05-01T14:40:27.933Z,48.87
2023-05-01T14:42:55.370Z,49.30
2023-05-01T14:45:22.705Z,50.30
2023-05-01T14:47:51.978Z,49.80
2023-05-01T14:50:20.744Z,50.34
2023-05-01T14:52:48.135Z,50.15
2023-05-01T14:55:17.751Z,49.75
2023-05-01T14:57:44.836Z,49.66
2023-05-01T15:00:15.220Z,51.20
2023-05-01T15:02:42.178Z,51.00
2023-05-01T15:05:09.507Z,49.32
2023-05-01T15:07:36.355Z,50.79
2023-05-01T15:10:03.933Z,50.17
2023-05-01T15:12:30.805Z,50.17
2023-05-01T15:14:58.187Z,50.77
2023-05-01T15:17:25.248Z,50.29
2023-05-01T15:19:53.376Z,51.54
2023-05-01T15:22:20.470Z,50.36
2023-05-01T15:24:47.705Z,49.73
2023-05-01T15:27:14.610Z,50.44
2023-05-01T15:29:42.111Z,50.10
2023-05-01T15:32:12.498Z,50.67
2023-05-01T15:34:41.367Z,51.03
2023-05-01T15:37:08.411Z,50.28
2023-05-01T15:39:40.333Z,49.31
2023-05-01T15:42:07.575Z,49.27
2023-05-01T15:44:35.148Z,49.43
2023-05-01T15:47:02.207Z,49.94
2023-05-01T15:49:29.657Z,50.27
2023-05-01T15:51:56.644Z,49.95
2023-05-01T15:54:24.813Z,50.18
2023-05-01T15:56:51.684Z,49.44
2023-05-01T15:59:18.928Z,49.88
2023-05-01T16:01:45.949Z,50.00
2023-05-01T16:04:15.813Z,49.18
2023-05-01T16:06:42.693Z,49.03
2023-05-01T16:09:10.950Z,49.24
2023-05-01T16:11:38.005Z,50.06
2023-05-01T16:14:07.988Z,49.38
2023-05-01T16:16:37.227Z,50.18
2023-05-01T16:19:04.583Z,50.06
2023-05-01T16:21:31.885Z,50.00
2023-05-01T16:24:02.368Z,51.00
2023-05-01T16:26:30.238Z,51.10
2023-05-01T16:29:02.054Z,51.23
2023-05-01T16:31:32.345Z,51.85
2023-05-01T16:33:59.632Z,51.84
2023-05-01T16:36:26.425Z,51.94
2023-05-01T16:38:53.606Z,51.83
2023-05-01T16:41:20.509Z,52.27
2023-05-01T16:43:47.725Z,52.67
2023-05-01T16:46:17.975Z,52.39
2023-05-01T16:48:47.692Z,53.01
2023-05-01T16:51:14.629Z,53.35
2023-05-01T16:53:41.941Z,53.42
2023-05-01T16:56:10.301Z,53.08
2023-05-01T16:58:37.581Z,54.01
2023-05-01T17:01:04.832Z,53.96
2023-05-01T17:03:32.142Z,53.84
2023-05-01T17:05:59.185Z,54.41
2023-05-01T17:08:32.308Z,54.70
2023-05-01T17:10:59.286Z,55.16
2023-05-01T17:13:26.748Z,55.73
2023-05-01T17:15:53.847Z,56.16
2023-05-01T17:18:21.303Z,56.96
2023-05-01T17:20:48.718Z,57.39
2023-05-01T17:23:17.157Z,57.08
2023-05-01T17:25:46.426Z,56.82
2023-05-01T17:28:13.773Z,57.48
2023-05-01T17:30:40.626Z,57.67
2023-05-01T17:33:07.901Z,57.59
2023-05-01T17:35:35.304Z,58.19
2023-05-01T17:38:03.116Z,57.66
2023-05-01T17:40:30.680Z,58.29
2023-05-01T17:42:58.245Z,58.57
2023-05-01T17:45:26.225Z,59.15
2023-05-01T17:47:56.342Z,59.07
2023-05-01T17:50:24.118Z,58.99
2023-05-01T17:52:51.621Z,59.72
2023-05-01T17:55:21.777Z,59.93
2023-05-01T17:57:49.103Z,59.65
2023-05-01T18:00:18.965Z,60.61
2023-05-01T18:02:48.037Z,60.17
2023-05-01T18:05:15.249Z,59.91
2023-05-01T18:07:42.599Z,61.40
2023-05-01T18:10:12.068Z,61.47
2023-05-01T18:12:40.489Z,61.40
2023-05-01T18:15:07.693Z,62.10
2023-05-01T18:17:35.222Z,63.09
2023-05-01T18:20:03.280Z,63.27
2023-05-01T18:22:31.322Z,63.42
2023-05-01T18:24:59.174Z,63.66
2023-05-01T18:27:26.469Z,64.69
2023-05-01T18:29:54.202Z,64.30
2023-05-01T18:34:53.317Z,64.46
2023-05-01T18:37:26.614Z,65.63
2023-05-01T18:39:54.479Z,65.14
2023-05-01T18:42:22.432Z,65.40
2023-05-01T18:44:50.207Z,66.51
2023-05-01T18:47:19.404Z,66.55
2023-05-01T18:49:46.868Z,66.14
2023-05-01T18:52:16.205Z,66.95
2023-05-01T18:54:43.685Z,67.96
2023-05-01T18:57:13.449Z,68.21
2023-05-01T18:59:43.020Z,69.29
2023-05-01T19:02:12.652Z,69.10
2023-05-01T19:04:56.644Z,67.88
2023-05-01T19:07:26.612Z,67.81
2023-05-01T19:09:54.233Z,68.49
2023-05-01T19:12:22.281Z,67.86
2023-05-01T19:14:49.785Z,68.58
2023-05-01T19:17:18.863Z,69.04
2023-05-01T19:19:49.483Z,68.64
2023-05-01T19:22:17.922Z,70.15
2023-05-01T19:24:46.057Z,69.90
2023-05-01T19:27:13.936Z,70.54
2023-05-01T19:29:41.611Z,71.08
2023-05-01T19:32:10.619Z,70.64
2023-05-01T19:34:40.696Z,69.24
2023-05-01T19:37:09.087Z,69.83
2023-05-01T19:39:39.726Z,70.11
2023-05-01T19:42:08.853Z,70.65
2023-05-01T19:44:36.606Z,70.16
2023-05-01T19:47:06.918Z,69.71
2023-05-01T19:49:35.068Z,69.26
2023-05-01T19:52:03.471Z,69.03
2023-05-01T19:54:31.303Z,69.44
2023-05-01T19:56:59.430Z,70.73
2023-05-01T19:59:27.156Z,71.31
2023-05-01T20:01:55.285Z,71.67
2023-05-01T20:04:24.665Z,73.92
2023-05-01T20:06:54.912Z,74.07
2023-05-01T20:09:24.073Z,74.16
2023-05-01T20:11:52.809Z,74.35
2023-05-01T20:14:20.265Z,75.70
2023-05-01T20:16:49.169Z,77.19
2023-05-01T20:19:17.889Z,79.30
2023-05-01T20:21:45.423Z,82.71
2023-05-01T20:24:12.730Z,83.62
2023-05-01T20:26:40.051Z,85.38
2023-05-01T20:29:06.941Z,87.59
2023-05-01T20:31:34.715Z,90.88
2023-05-01T20:34:01.641Z,92.96
2023-05-01T20:36:29.963Z,95.23
2023-05-01T20:38:58.018Z,96.91
2023-05-01T20:41:25.940Z,97.61
2023-05-01T20:43:53.408Z,99.31
2023-05-01T20:46:23.455Z,100.00
2023-05-01T20:48:50.714Z,100.00
2023-05-01T20:51:18.096Z,100.00
2023-05-01T20:53:45.202Z,100.00
2023-05-01T20:56:12.484Z,100.00
2023-05-01T20:58:39.606Z,100.00
2023-05-01T21:01:08.064Z,100.00
2023-05-01T21:03:35.183Z,100.00
2023-05-01T21:06:02.462Z,100.00
2023-05-01T21:08:32.275Z,100.00
2023-05-01T21:11:00.824Z,100.00
2023-05-01T21:13:33.647Z,100.00
2023-05-01T21:16:02.733Z,100.00
2023-05-01T21:18:33.044Z,100.00
2023-05-01T21:21:03.280Z,100.00
2023-05-01T21:23:30.412Z,100.00
2023-05-01T21:25:57.690Z,100.00
2023-05-01T21:28:24.733Z,100.00
2023-05-01T21:30:52.085Z,100.00
2023-05-01T21:33:19.126Z,100.00
2023-05-01T21:35:46.881Z,100.00
2023-05-01T21:38:13.876Z,100.00
2023-05-01T21:40:42.405Z,100.00
2023-05-01T21:43:09.405Z,100.00
2023-05-01T21:45:42.527Z,100.00
2023-05-01T21:48:09.916Z,100.00
2023-05-01T21:50:38.213Z,100.00
2023-05-01T21:53:08.086Z,100.00
2023-05-01T21:55:36.442Z,100.00
2023-05-01T21:58:04.102Z,100.00
2023-05-01T22:00:31.936Z,100.00
2023-05-01T22:02:58.969Z,100.00
2023-05-01T22:05:29.301Z,100.00
2023-05-01T22:07:56.326Z,100.00
2023-05-01T22:10:23.514Z,100.00
2023-05-01T22:12:50.441Z,100.00
2023-05-01T22:15:19.981Z,100.00
2023-05-01T22:17:46.930Z,100.00
2023-05-01T22:20:14.246Z,100.00
2023-05-01T22:22:41.600Z,100.00
2023-05-01T22:25:09.522Z,100.00
2023-05-01T22:27:37.765Z,100.00
2023-05-01T22:30:05.368Z,100.00
2023-05-01T22:32:34.579Z,100.00
2023-05-01T22:35:02.096Z,100.00
2023-05-01T22:37:29.040Z,100.00
2023-05-01T22:39:56.243Z,100.00
2023-05-01T22:42:23.357Z,100.00
2023-05-01T22:44:52.963Z,100.00
2023-05-01T22:47:20.154Z,100.00
2023-05-01T22:49:47.433Z,100.00
2023-05-01T22:52:14.332Z,100.00
2023-05-01T22:54:41.821Z,100.00
2023-05-01T22:57:08.746Z,100.00
2023-05-01T22:59:36.108Z,100.00
2023-05-01T23:02:05.613Z,100.00
2023-05-01T23:04:33.485Z,100.00
2023-05-01T23:07:00.750Z,100.00
2023-05-01T23:09:30.042Z,100.00
2023-05-01T23:11:59.383Z,100.00
2023-05-01T23:14:26.705Z,100.00
2023-05-01T23:16:53.665Z,100.00
2023-05-01T23:19:24.873Z,100.00
2023-05-01T23:22:03.283Z,100.00
2023-05-01T23:24:36.164Z,100.00
2023-05-01T23:27:03.172Z,100.00
2023-05-01T23:29:31.036Z,100.00
2023-05-01T23:31:58.704Z,100.00
2023-05-01T23:34:28.372Z,100.00
2023-05-01T23:36:55.268Z,100.00
2023-05-01T23:39:22.423Z,100.00
2023-05-01T23:41:50.547Z,100.00
2023-05-01T23:44:17.958Z,100.00
2023-05-01T23:46:44.954Z,100.00
2023-05-01T23:49:12.686Z,100.00
2023-05-01T23:51:42.064Z,100.00
2023-05-01T23:54:09.266Z,100.00
2023-05-01T23:56:36.098Z,100.00
2023-05-01T23:59:03.470Z,100.00
